AirNav   Pilot Hours Calculator
 
 383 users online  

CL35 Warner Springs Gliderport
Warner Springs, California, USA

GOING TO WARNER SPRINGS?


FAA INFORMATION EFFECTIVE 22 APRIL 2021

Location

FAA Identifier: CL35
Lat/Long: 33-17-04.2100N 116-40-10.7650W
33-17.070167N 116-40.179417W
33.2845028,-116.6696569
(estimated)
Elevation: 2880 ft. / 878 m (estimated)
Variation: 13E (1985)
From city: 2 miles E of WARNER SPRINGS, CA
Time zone: UTC -7 (UTC -8 during Standard Time)
Zip code: 92086

Gliderport Operations

Gliderport use: Private use. Permission required prior to landing
Activation date: 10/1984
Control tower: no
ARTCC: LOS ANGELES CENTER
FSS: SAN DIEGO FLIGHT SERVICE STATION
Attendance: 0900-1700
Wind indicator: yes
Segmented circle: yes
Landing fee: yes

Gliderport Communications

UNICOM: 122.8
WX AWOS-3P at L08 (18 nm E): 126.575 (760-767-3308)
WX ASOS at RNM (19 nm SW): PHONE 760-789-7699

Nearby radio navigation aids

VOR radial/distance  VOR name  Freq  Var
JLIr319/9.6JULIAN VORTAC114.0015E
TRMr218/32.8THERMAL VORTAC116.2013E
PSPr186/37.1PALM SPRINGS VORTAC115.5013E
OCNr071/37.6OCEANSIDE VORTAC115.3015E
HDFr125/(39.2)HOMELAND VOR113.4014E

Gliderport Services

Runway Information

Runway 8/26

Dimensions: 3500 x 70 ft. / 1067 x 21 m
Surface: asphalt
RUNWAY 8  RUNWAY 26
Latitude: 33-17.060333N33-17.080000N
Longitude: 116-40.522667W116-39.836167W
Elevation: 2873.0 ft.2914.0 ft.
Traffic pattern: leftleft
Obstructions: none200 ft. hill, 5200 ft. from runway

Gliderport Ownership and Management from official FAA records

Ownership: Privately-owned
Owner: WARNER SPRINGS RANCH RESORT, LLC
31930 HWY 79
WARNER SPRINGS, CA 92086
Phone 760-782-4200
SKY SAILING 31930 HWY 79.
Manager: BRET WILLAT
SKY SAILING 31930 HWY 79
WARNER SPRINGS, CA 92086
Phone 760-782-0404
LEASEE.

Gliderport Operational Statistics

Aircraft based on the field: 80
Single engine airplanes: 10
Gliders airplanes: 70
    

Additional Remarks

FOR CD CTC LOS ANGELES ARTCC AT 661-575-2079.

Instrument Procedures

There are no published instrument procedures at CL35.

Some nearby airports with instrument procedures:

L08 - Borrego Valley Airport (18 nm E)
KRNM - Ramona Airport (19 nm SW)
F70 - French Valley Airport (29 nm NW)
L18 - Fallbrook Community Airpark (29 nm W)
KSEE - Gillespie Field Airport (31 nm SW)
 
Loc | Ops | Rwys | IFR | FBO | Links
Com | Nav | Svcs | Stats | Notes
Area around CL35 (Warner Springs Gliderport)
 
Road maps at: MapQuest Bing Google
 
Aerial photo
WARNING: Photo may not be current or correct
Aerial photo of CL35 (Warner Springs Gliderport)
Photo by Steve Lupinacci
Photo taken 27-May-2008

Do you have a better or more recent aerial photo of Warner Springs Gliderport that you would like to share? If so, please send us your photo.

 
Sectional chart

 
Airport distance calculator
Flying to Warner Springs Gliderport? Find the distance to fly.

From to CL35

Sunrise and sunset
Times for 18-May-2021
 Local
(UTC-7)
 Zulu
(UTC)
Morning civil twilight05:1812:18
Sunrise05:4612:46
Sunset19:4102:41
Evening civil twilight20:0803:08

Current date and time
Zulu (UTC)  18-May-2021 08:20:33
Local (UTC-7)  18-May-2021 01:20:33
 
METAR
KL08 
18nm E 
180755Z AUTO VRB03KT 10SM FEW044 FEW050 20/07 A2982 RMK AO2
KRNM 
20nm SW 
180753Z AUTO 27007KT 5SM BR OVC003 13/12 A3005 RMK AO2 SLP167 T01280122 401780111
KF70 
29nm NW 
180755Z AUTO 20005KT 10SM OVC022 14/12 A3004 RMK AO1
KL18 
29nm W 
180755Z AUTO 00000KT 4SM BR OVC007 14/13 A3005 RMK AO2
KSEE 
32nm SW 
180755Z AUTO 27004KT 2 1/2SM BR BKN010 OVC013 15/13 A3005 RMK AO2
KCRQ 
32nm W 
180753Z AUTO 26005KT 10SM OVC016 16/12 A3004 RMK AO2 SLP170 T01560117 401940139
KHMT 
32nm NW 
180755Z AUTO 23007KT 10SM OVC022 14/13 A3004 RMK AO2 T01400128
KTRM 
33nm NE 
180752Z AUTO 31016G21KT 10SM CLR 23/09 A2979 RMK AO2 SLP090 T02280089 403390189
KPSP 
33nm N 
180753Z AUTO 12006KT 10SM CLR 22/11 A2982 RMK AO2 SLP095 T02170106 403110189
KNFG 
33nm W 
180755Z AUTO 22003KT 6SM HZ OVC013 17/13 A3004 RMK AO2 SLP170 T01720133 402280150
TAF
KCRQ 
32nm W 
180540Z 1806/1906 VRB04KT P6SM BKN015 OVC025 FM182000 25008KT P6SM SCT020 FM190200 20005KT P6SM BKN015
KTRM 
33nm NE 
180540Z 1806/1906 33015G25KT P6SM SKC FM181300 33008KT P6SM SKC FM181700 VRB05KT P6SM SKC FM190100 33015G25KT P6SM SKC
KPSP 
33nm N 
180540Z 1806/1906 32011G18KT P6SM SKC FM180900 33007KT P6SM SKC FM182200 32015G25KT P6SM SKC
KNFG 
33nm W 
1803/1903 VRB05KT 9999 SCT015 QNH2999INS BECMG 1804/1806 VRB05KT 9999 BKN013 QNH3000INS TEMPO 1806/1812 OVC008 6000 BR DZ FM182030 22010KT 9999 SCT020 QNH2985INS BECMG 1901/1903 VRB05KT 9999 SCT015 QNH2986INS T14/1813Z T22/1821Z
KNKX 
34nm SW 
1803/1903 VRB05KT 9999 BKN013 QNH3000INS BECMG 1805/1807 VRB05KT 9999 BKN010 QNH2995INS TEMPO 1810/1816 3200 BR -DZ BKN005 FM181930 27008KT 9999 SCT015 QNH2986INS T14/1813Z T21/1821Z
NOTAMs
Click for the latest NOTAMs
NOTAMs are issued by the DoD/FAA and will open in a separate window not controlled by AirNav.

 

 
 

Would you like to see your business listed on this page?

 If your business provides an interesting product or service to pilots, flight crews, aircraft, or users of the Warner Springs Gliderport, you should consider listing it here.  To start the listing process, click on the button below
 
Add a business
 

Other Pages about Warner Springs Gliderport

www.agcsc.org/warner_springs_info.html
 
Update a link
 
Copyright © AirNav, LLC. All rights reserved. Privacy Policy  Contact